sensor_id;sensor_type;location;lat;lon;timestamp;temperature;humidity
64882;HTU21D;51375;44.836;38.672;2023-12-22T00:01:41;14.50;61.22
64882;HTU21D;51375;44.836;38.672;2023-12-22T00:04:07;14.49;61.38
64882;HTU21D;51375;44.836;38.672;2023-12-22T00:06:33;14.47;61.50
64882;HTU21D;51375;44.836;38.672;2023-12-22T00:08:59;14.47;61.58
64882;HTU21D;51375;44.836;38.672;2023-12-22T00:11:25;14.49;61.58
64882;HTU21D;51375;44.836;38.672;2023-12-22T00:13:51;14.51;61.61
64882;HTU21D;51375;44.836;38.672;2023-12-22T00:16:17;14.51;61.64
64882;HTU21D;51375;44.836;38.672;2023-12-22T00:18:43;14.52;61.73
64882;HTU21D;51375;44.836;38.672;2023-12-22T00:21:10;14.53;61.76
64882;HTU21D;51375;44.836;38.672;2023-12-22T00:23:37;14.53;61.86
64882;HTU21D;51375;44.836;38.672;2023-12-22T00:26:06;14.49;62.03
64882;HTU21D;51375;44.836;38.672;2023-12-22T00:28:32;14.48;62.14
64882;HTU21D;51375;44.836;38.672;2023-12-22T00:30:58;14.42;62.26
64882;HTU21D;51375;44.836;38.672;2023-12-22T00:33:25;14.39;62.38
64882;HTU21D;51375;44.836;38.672;2023-12-22T00:35:51;14.39;62.46
64882;HTU21D;51375;44.836;38.672;2023-12-22T00:38:17;14.37;62.53
64882;HTU21D;51375;44.836;38.672;2023-12-22T00:40:43;14.34;62.60
64882;HTU21D;51375;44.836;38.672;2023-12-22T00:43:09;14.35;62.57
64882;HTU21D;51375;44.836;38.672;2023-12-22T00:45:35;14.37;62.47
64882;HTU21D;51375;44.836;38.672;2023-12-22T00:48:01;14.39;62.37
64882;HTU21D;51375;44.836;38.672;2023-12-22T00:50:28;14.38;62.43
64882;HTU21D;51375;44.836;38.672;2023-12-22T00:52:54;14.33;62.55
64882;HTU21D;51375;44.836;38.672;2023-12-22T00:55:20;14.33;62.57
64882;HTU21D;51375;44.836;38.672;2023-12-22T00:57:46;14.35;62.53
64882;HTU21D;51375;44.836;38.672;2023-12-22T01:00:12;14.37;62.49
64882;HTU21D;51375;44.836;38.672;2023-12-22T01:02:38;14.35;62.53
64882;HTU21D;51375;44.836;38.672;2023-12-22T01:05:05;14.35;62.52
64882;HTU21D;51375;44.836;38.672;2023-12-22T01:07:31;14.35;62.55
64882;HTU21D;51375;44.836;38.672;2023-12-22T01:09:57;14.34;62.57
64882;HTU21D;51375;44.836;38.672;2023-12-22T01:12:27;14.29;62.67
64882;HTU21D;51375;44.836;38.672;2023-12-22T01:14:57;14.26;62.82
64882;HTU21D;51375;44.836;38.672;2023-12-22T01:17:23;14.25;62.91
64882;HTU21D;51375;44.836;38.672;2023-12-22T01:19:49;14.17;63.18
64882;HTU21D;51375;44.836;38.672;2023-12-22T01:22:16;14.13;63.40
64882;HTU21D;51375;44.836;38.672;2023-12-22T01:24:42;14.14;63.55
64882;HTU21D;51375;44.836;38.672;2023-12-22T01:27:11;14.12;63.71
64882;HTU21D;51375;44.836;38.672;2023-12-22T01:29:37;14.07;63.89
64882;HTU21D;51375;44.836;38.672;2023-12-22T01:32:04;14.07;64.00
64882;HTU21D;51375;44.836;38.672;2023-12-22T01:34:30;14.11;64.00
64882;HTU21D;51375;44.836;38.672;2023-12-22T01:36:56;14.08;64.08
64882;HTU21D;51375;44.836;38.672;2023-12-22T01:39:22;14.08;64.18
64882;HTU21D;51375;44.836;38.672;2023-12-22T01:41:48;14.11;64.20
64882;HTU21D;51375;44.836;38.672;2023-12-22T01:44:14;14.11;64.26
64882;HTU21D;51375;44.836;38.672;2023-12-22T01:46:40;14.11;64.32
64882;HTU21D;51375;44.836;38.672;2023-12-22T01:49:07;14.10;64.39
64882;HTU21D;51375;44.836;38.672;2023-12-22T01:51:37;14.10;64.52
64882;HTU21D;51375;44.836;38.672;2023-12-22T01:54:05;14.06;64.68
64882;HTU21D;51375;44.836;38.672;2023-12-22T01:56:32;14.03;64.82
64882;HTU21D;51375;44.836;38.672;2023-12-22T01:59:00;13.99;64.92
64882;HTU21D;51375;44.836;38.672;2023-12-22T02:01:30;13.99;64.99
64882;HTU21D;51375;44.836;38.672;2023-12-22T02:03:59;14.00;64.98
64882;HTU21D;51375;44.836;38.672;2023-12-22T02:06:25;13.99;65.03
64882;HTU21D;51375;44.836;38.672;2023-12-22T02:08:51;13.98;65.01
64882;HTU21D;51375;44.836;38.672;2023-12-22T02:11:18;13.98;65.02
64882;HTU21D;51375;44.836;38.672;2023-12-22T02:13:45;13.98;65.00
64882;HTU21D;51375;44.836;38.672;2023-12-22T02:16:22;13.98;64.94
64882;HTU21D;51375;44.836;38.672;2023-12-22T02:18:55;13.98;65.01
64882;HTU21D;51375;44.836;38.672;2023-12-22T02:21:22;13.99;64.96
64882;HTU21D;51375;44.836;38.672;2023-12-22T02:23:48;14.03;64.88
64882;HTU21D;51375;44.836;38.672;2023-12-22T02:26:35;14.00;64.91
64882;HTU21D;51375;44.836;38.672;2023-12-22T02:29:02;13.99;64.96
64882;HTU21D;51375;44.836;38.672;2023-12-22T02:31:42;14.01;64.96
64882;HTU21D;51375;44.836;38.672;2023-12-22T02:34:18;14.00;64.97
64882;HTU21D;51375;44.836;38.672;2023-12-22T02:36:45;14.03;64.98
64882;HTU21D;51375;44.836;38.672;2023-12-22T02:39:13;14.01;65.05
64882;HTU21D;51375;44.836;38.672;2023-12-22T02:41:41;14.03;65.05
64882;HTU21D;51375;44.836;38.672;2023-12-22T02:44:07;14.05;65.01
64882;HTU21D;51375;44.836;38.672;2023-12-22T02:46:34;14.08;65.00
64882;HTU21D;51375;44.836;38.672;2023-12-22T02:49:00;14.07;65.04
64882;HTU21D;51375;44.836;38.672;2023-12-22T02:51:26;14.09;65.12
64882;HTU21D;51375;44.836;38.672;2023-12-22T02:53:52;14.07;65.23
64882;HTU21D;51375;44.836;38.672;2023-12-22T02:56:18;14.08;65.23
64882;HTU21D;51375;44.836;38.672;2023-12-22T02:58:43;14.11;65.23
64882;HTU21D;51375;44.836;38.672;2023-12-22T03:01:09;14.15;65.12
64882;HTU21D;51375;44.836;38.672;2023-12-22T03:03:35;14.19;65.04
64882;HTU21D;51375;44.836;38.672;2023-12-22T03:06:01;14.22;64.98
64882;HTU21D;51375;44.836;38.672;2023-12-22T03:08:27;14.23;64.96
64882;HTU21D;51375;44.836;38.672;2023-12-22T03:10:53;14.26;64.87
64882;HTU21D;51375;44.836;38.672;2023-12-22T03:13:19;14.28;64.81
64882;HTU21D;51375;44.836;38.672;2023-12-22T03:15:45;14.28;64.81
64882;HTU21D;51375;44.836;38.672;2023-12-22T03:18:12;14.28;64.85
64882;HTU21D;51375;44.836;38.672;2023-12-22T03:20:38;14.30;64.84
64882;HTU21D;51375;44.836;38.672;2023-12-22T03:23:04;14.30;64.86
64882;HTU21D;51375;44.836;38.672;2023-12-22T03:25:30;14.30;64.94
64882;HTU21D;51375;44.836;38.672;2023-12-22T03:27:56;14.32;64.95
64882;HTU21D;51375;44.836;38.672;2023-12-22T03:30:22;14.29;65.00
64882;HTU21D;51375;44.836;38.672;2023-12-22T03:32:49;14.33;65.01
64882;HTU21D;51375;44.836;38.672;2023-12-22T03:35:15;14.36;64.96
64882;HTU21D;51375;44.836;38.672;2023-12-22T03:37:42;14.36;64.92
64882;HTU21D;51375;44.836;38.672;2023-12-22T03:40:08;14.34;65.03
64882;HTU21D;51375;44.836;38.672;2023-12-22T03:42:35;14.33;65.04
64882;HTU21D;51375;44.836;38.672;2023-12-22T03:45:01;14.34;65.08
64882;HTU21D;51375;44.836;38.672;2023-12-22T03:47:27;14.36;65.00
64882;HTU21D;51375;44.836;38.672;2023-12-22T03:49:53;14.40;64.96
64882;HTU21D;51375;44.836;38.672;2023-12-22T03:52:19;14.47;64.77
64882;HTU21D;51375;44.836;38.672;2023-12-22T03:54:44;14.52;64.68
64882;HTU21D;51375;44.836;38.672;2023-12-22T03:57:10;14.57;64.57
64882;HTU21D;51375;44.836;38.672;2023-12-22T03:59:36;14.63;64.41
64882;HTU21D;51375;44.836;38.672;2023-12-22T04:02:02;14.64;64.36
64882;HTU21D;51375;44.836;38.672;2023-12-22T04:04:28;14.68;64.30
64882;HTU21D;51375;44.836;38.672;2023-12-22T04:06:54;14.71;64.21
64882;HTU21D;51375;44.836;38.672;2023-12-22T04:09:20;14.71;64.21
64882;HTU21D;51375;44.836;38.672;2023-12-22T04:11:46;14.70;64.23
64882;HTU21D;51375;44.836;38.672;2023-12-22T04:14:12;14.71;64.24
64882;HTU21D;51375;44.836;38.672;2023-12-22T04:16:38;14.71;64.26
64882;HTU21D;51375;44.836;38.672;2023-12-22T04:19:04;14.69;64.33
64882;HTU21D;51375;44.836;38.672;2023-12-22T04:21:30;14.62;64.50
64882;HTU21D;51375;44.836;38.672;2023-12-22T04:23:56;14.53;64.71
64882;HTU21D;51375;44.836;38.672;2023-12-22T04:26:24;14.42;65.04
64882;HTU21D;51375;44.836;38.672;2023-12-22T04:28:50;14.34;65.28
64882;HTU21D;51375;44.836;38.672;2023-12-22T04:31:16;14.24;65.50
64882;HTU21D;51375;44.836;38.672;2023-12-22T04:33:42;14.21;65.65
64882;HTU21D;51375;44.836;38.672;2023-12-22T04:36:08;14.20;65.67
64882;HTU21D;51375;44.836;38.672;2023-12-22T04:38:35;14.22;65.69
64882;HTU21D;51375;44.836;38.672;2023-12-22T04:41:01;14.26;65.61
64882;HTU21D;51375;44.836;38.672;2023-12-22T04:43:28;14.32;65.52
64882;HTU21D;51375;44.836;38.672;2023-12-22T04:45:54;14.38;65.46
64882;HTU21D;51375;44.836;38.672;2023-12-22T04:48:20;14.43;65.32
64882;HTU21D;51375;44.836;38.672;2023-12-22T04:50:47;14.48;65.21
64882;HTU21D;51375;44.836;38.672;2023-12-22T04:53:12;14.52;65.09
64882;HTU21D;51375;44.836;38.672;2023-12-22T04:55:39;14.55;64.93
64882;HTU21D;51375;44.836;38.672;2023-12-22T04:58:05;14.58;64.83
64882;HTU21D;51375;44.836;38.672;2023-12-22T05:00:31;14.62;64.71
64882;HTU21D;51375;44.836;38.672;2023-12-22T05:02:57;14.63;64.61
64882;HTU21D;51375;44.836;38.672;2023-12-22T05:05:23;14.63;64.52
64882;HTU21D;51375;44.836;38.672;2023-12-22T05:07:50;14.62;64.59
64882;HTU21D;51375;44.836;38.672;2023-12-22T05:10:16;14.60;64.62
64882;HTU21D;51375;44.836;38.672;2023-12-22T05:12:42;14.59;64.59
64882;HTU21D;51375;44.836;38.672;2023-12-22T05:15:08;14.57;64.58
64882;HTU21D;51375;44.836;38.672;2023-12-22T05:17:34;14.48;64.69
64882;HTU21D;51375;44.836;38.672;2023-12-22T05:20:00;14.40;64.88
64882;HTU21D;51375;44.836;38.672;2023-12-22T05:22:25;14.27;65.16
64882;HTU21D;51375;44.836;38.672;2023-12-22T05:24:51;14.21;65.43
64882;HTU21D;51375;44.836;38.672;2023-12-22T05:27:18;14.19;65.48
64882;HTU21D;51375;44.836;38.672;2023-12-22T05:29:44;14.13;65.62
64882;HTU21D;51375;44.836;38.672;2023-12-22T05:32:10;14.10;65.72
64882;HTU21D;51375;44.836;38.672;2023-12-22T05:34:36;14.12;65.66
64882;HTU21D;51375;44.836;38.672;2023-12-22T05:37:03;14.10;65.66
64882;HTU21D;51375;44.836;38.672;2023-12-22T05:39:29;14.12;65.71
64882;HTU21D;51375;44.836;38.672;2023-12-22T05:41:55;14.13;65.66
64882;HTU21D;51375;44.836;38.672;2023-12-22T05:44:20;14.10;65.77
64882;HTU21D;51375;44.836;38.672;2023-12-22T05:46:48;14.05;65.94
64882;HTU21D;51375;44.836;38.672;2023-12-22T05:49:13;13.93;66.31
64882;HTU21D;51375;44.836;38.672;2023-12-22T05:51:40;13.84;66.70
64882;HTU21D;51375;44.836;38.672;2023-12-22T05:54:09;13.84;66.85
64882;HTU21D;51375;44.836;38.672;2023-12-22T05:56:35;13.85;66.91
64882;HTU21D;51375;44.836;38.672;2023-12-22T05:59:01;13.84;67.07
64882;HTU21D;51375;44.836;38.672;2023-12-22T06:01:28;13.78;67.38
64882;HTU21D;51375;44.836;38.672;2023-12-22T06:03:54;13.73;67.59
64882;HTU21D;51375;44.836;38.672;2023-12-22T06:06:21;13.73;67.75
64882;HTU21D;51375;44.836;38.672;2023-12-22T06:08:47;13.79;67.84
64882;HTU21D;51375;44.836;38.672;2023-12-22T06:11:13;13.89;67.66
64882;HTU21D;51375;44.836;38.672;2023-12-22T06:13:39;13.95;67.52
64882;HTU21D;51375;44.836;38.672;2023-12-22T06:16:06;13.94;67.58
64882;HTU21D;51375;44.836;38.672;2023-12-22T06:18:32;13.89;67.82
64882;HTU21D;51375;44.836;38.672;2023-12-22T06:20:58;13.77;68.20
64882;HTU21D;51375;44.836;38.672;2023-12-22T06:23:24;13.67;68.55
64882;HTU21D;51375;44.836;38.672;2023-12-22T06:25:50;13.61;68.85
64882;HTU21D;51375;44.836;38.672;2023-12-22T06:28:16;13.54;69.13
64882;HTU21D;51375;44.836;38.672;2023-12-22T06:30:43;13.52;69.36
64882;HTU21D;51375;44.836;38.672;2023-12-22T06:33:09;13.48;69.61
64882;HTU21D;51375;44.836;38.672;2023-12-22T06:35:36;13.43;69.81
64882;HTU21D;51375;44.836;38.672;2023-12-22T06:38:03;13.41;70.06
64882;HTU21D;51375;44.836;38.672;2023-12-22T06:40:31;13.38;70.23
64882;HTU21D;51375;44.836;38.672;2023-12-22T06:42:57;13.37;70.29
64882;HTU21D;51375;44.836;38.672;2023-12-22T06:45:23;13.38;70.36
64882;HTU21D;51375;44.836;38.672;2023-12-22T06:47:48;13.41;70.32
64882;HTU21D;51375;44.836;38.672;2023-12-22T06:50:14;13.46;70.19
64882;HTU21D;51375;44.836;38.672;2023-12-22T06:52:40;13.51;70.13
64882;HTU21D;51375;44.836;38.672;2023-12-22T06:55:07;13.58;69.90
64882;HTU21D;51375;44.836;38.672;2023-12-22T06:57:32;13.65;69.68
64882;HTU21D;51375;44.836;38.672;2023-12-22T06:59:58;13.68;69.46
64882;HTU21D;51375;44.836;38.672;2023-12-22T07:02:25;13.68;69.45
64882;HTU21D;51375;44.836;38.672;2023-12-22T07:07:38;13.69;69.51
64882;HTU21D;51375;44.836;38.672;2023-12-22T07:10:05;13.80;69.12
64882;HTU21D;51375;44.836;38.672;2023-12-22T07:12:31;13.80;69.14
64882;HTU21D;51375;44.836;38.672;2023-12-22T07:14:57;13.81;69.09
64882;HTU21D;51375;44.836;38.672;2023-12-22T07:17:24;13.80;69.18
64882;HTU21D;51375;44.836;38.672;2023-12-22T07:19:49;13.82;69.17
64882;HTU21D;51375;44.836;38.672;2023-12-22T07:22:17;13.84;69.10
64882;HTU21D;51375;44.836;38.672;2023-12-22T07:24:43;13.91;68.92
64882;HTU21D;51375;44.836;38.672;2023-12-22T07:27:09;13.95;68.34
64882;HTU21D;51375;44.836;38.672;2023-12-22T07:29:35;13.92;68.36
64882;HTU21D;51375;44.836;38.672;2023-12-22T07:32:01;13.90;68.09
64882;HTU21D;51375;44.836;38.672;2023-12-22T07:34:27;13.82;68.11
64882;HTU21D;51375;44.836;38.672;2023-12-22T07:36:53;13.74;68.11
64882;HTU21D;51375;44.836;38.672;2023-12-22T07:39:22;13.68;68.25
64882;HTU21D;51375;44.836;38.672;2023-12-22T07:41:48;13.62;68.25
64882;HTU21D;51375;44.836;38.672;2023-12-22T07:44:14;13.59;68.36
64882;HTU21D;51375;44.836;38.672;2023-12-22T07:46:40;13.59;68.38
64882;HTU21D;51375;44.836;38.672;2023-12-22T07:49:05;13.60;68.23
64882;HTU21D;51375;44.836;38.672;2023-12-22T07:51:31;13.59;68.29
64882;HTU21D;51375;44.836;38.672;2023-12-22T07:53:58;13.63;68.22
64882;HTU21D;51375;44.836;38.672;2023-12-22T07:56:24;13.67;68.07
64882;HTU21D;51375;44.836;38.672;2023-12-22T07:58:50;13.67;68.09
64882;HTU21D;51375;44.836;38.672;2023-12-22T08:01:16;13.73;68.08
64882;HTU21D;51375;44.836;38.672;2023-12-22T08:03:42;13.76;67.88
64882;HTU21D;51375;44.836;38.672;2023-12-22T08:06:08;13.79;67.70
64882;HTU21D;51375;44.836;38.672;2023-12-22T08:08:33;13.82;67.88
64882;HTU21D;51375;44.836;38.672;2023-12-22T08:11:00;13.94;67.74
64882;HTU21D;51375;44.836;38.672;2023-12-22T08:13:26;14.08;67.40
64882;HTU21D;51375;44.836;38.672;2023-12-22T08:15:53;14.25;67.06
64882;HTU21D;51375;44.836;38.672;2023-12-22T08:18:19;14.35;66.65
64882;HTU21D;51375;44.836;38.672;2023-12-22T08:20:44;14.40;66.41
64882;HTU21D;51375;44.836;38.672;2023-12-22T08:23:10;14.52;65.01
64882;HTU21D;51375;44.836;38.672;2023-12-22T08:25:37;14.68;64.79
64882;HTU21D;51375;44.836;38.672;2023-12-22T08:28:05;14.88;64.05
64882;HTU21D;51375;44.836;38.672;2023-12-22T08:30:31;15.04;62.82
64882;HTU21D;51375;44.836;38.672;2023-12-22T08:32:59;15.17;62.30
64882;HTU21D;51375;44.836;38.672;2023-12-22T08:35:24;15.28;61.82
64882;HTU21D;51375;44.836;38.672;2023-12-22T08:37:50;15.40;62.02
64882;HTU21D;51375;44.836;38.672;2023-12-22T08:40:17;15.51;61.76
64882;HTU21D;51375;44.836;38.672;2023-12-22T08:42:44;15.59;61.45
64882;HTU21D;51375;44.836;38.672;2023-12-22T08:45:10;15.66;61.20
64882;HTU21D;51375;44.836;38.672;2023-12-22T08:47:36;15.68;61.15
64882;HTU21D;51375;44.836;38.672;2023-12-22T08:50:02;15.74;60.88
64882;HTU21D;51375;44.836;38.672;2023-12-22T08:52:29;15.75;60.22
64882;HTU21D;51375;44.836;38.672;2023-12-22T08:54:55;15.74;60.37
64882;HTU21D;51375;44.836;38.672;2023-12-22T08:57:21;15.81;60.62
64882;HTU21D;51375;44.836;38.672;2023-12-22T08:59:47;15.86;60.51
64882;HTU21D;51375;44.836;38.672;2023-12-22T09:02:13;15.90;60.60
64882;HTU21D;51375;44.836;38.672;2023-12-22T09:04:39;15.95;60.44
64882;HTU21D;51375;44.836;38.672;2023-12-22T09:07:06;15.97;60.22
64882;HTU21D;51375;44.836;38.672;2023-12-22T09:09:32;16.00;60.30
64882;HTU21D;51375;44.836;38.672;2023-12-22T09:11:57;16.03;60.38
64882;HTU21D;51375;44.836;38.672;2023-12-22T09:14:24;16.10;60.15
64882;HTU21D;51375;44.836;38.672;2023-12-22T09:16:50;16.10;60.09
64882;HTU21D;51375;44.836;38.672;2023-12-22T09:19:16;16.11;59.91
64882;HTU21D;51375;44.836;38.672;2023-12-22T09:21:42;16.12;59.76
64882;HTU21D;51375;44.836;38.672;2023-12-22T09:24:09;16.11;59.78
64882;HTU21D;51375;44.836;38.672;2023-12-22T09:26:38;16.13;59.98
64882;HTU21D;51375;44.836;38.672;2023-12-22T09:29:04;16.16;59.88
64882;HTU21D;51375;44.836;38.672;2023-12-22T09:31:30;16.19;59.45
64882;HTU21D;51375;44.836;38.672;2023-12-22T09:33:58;16.18;59.43
64882;HTU21D;51375;44.836;38.672;2023-12-22T09:36:24;16.16;59.08
64882;HTU21D;51375;44.836;38.672;2023-12-22T09:38:50;16.16;59.09
64882;HTU21D;51375;44.836;38.672;2023-12-22T09:41:16;16.14;58.90
64882;HTU21D;51375;44.836;38.672;2023-12-22T09:43:42;16.13;59.12
64882;HTU21D;51375;44.836;38.672;2023-12-22T09:46:11;16.15;59.18
64882;HTU21D;51375;44.836;38.672;2023-12-22T09:48:40;16.14;59.26
64882;HTU21D;51375;44.836;38.672;2023-12-22T09:51:07;16.16;59.25
64882;HTU21D;51375;44.836;38.672;2023-12-22T09:53:35;16.19;58.87
64882;HTU21D;51375;44.836;38.672;2023-12-22T09:56:01;16.19;58.87
64882;HTU21D;51375;44.836;38.672;2023-12-22T09:58:28;16.22;59.09
64882;HTU21D;51375;44.836;38.672;2023-12-22T10:00:55;16.25;58.88
64882;HTU21D;51375;44.836;38.672;2023-12-22T10:03:24;16.28;58.58
64882;HTU21D;51375;44.836;38.672;2023-12-22T10:05:51;16.30;58.41
64882;HTU21D;51375;44.836;38.672;2023-12-22T10:08:18;16.30;58.35
64882;HTU21D;51375;44.836;38.672;2023-12-22T10:10:46;16.34;58.31
64882;HTU21D;51375;44.836;38.672;2023-12-22T10:13:13;16.40;58.03
64882;HTU21D;51375;44.836;38.672;2023-12-22T10:15:40;16.44;57.76
64882;HTU21D;51375;44.836;38.672;2023-12-22T10:18:07;16.47;57.82
64882;HTU21D;51375;44.836;38.672;2023-12-22T10:20:34;16.52;57.68
64882;HTU21D;51375;44.836;38.672;2023-12-22T10:23:01;16.51;56.66
64882;HTU21D;51375;44.836;38.672;2023-12-22T10:25:28;16.50;56.33
64882;HTU21D;51375;44.836;38.672;2023-12-22T10:27:58;16.50;56.58
64882;HTU21D;51375;44.836;38.672;2023-12-22T10:30:24;16.51;56.54
64882;HTU21D;51375;44.836;38.672;2023-12-22T10:32:50;16.50;56.07
64882;HTU21D;51375;44.836;38.672;2023-12-22T10:35:23;16.49;55.95
64882;HTU21D;51375;44.836;38.672;2023-12-22T10:37:49;16.48;55.92
64882;HTU21D;51375;44.836;38.672;2023-12-22T10:40:19;16.46;55.49
64882;HTU21D;51375;44.836;38.672;2023-12-22T10:42:45;16.44;55.49
64882;HTU21D;51375;44.836;38.672;2023-12-22T10:45:11;16.39;55.45
64882;HTU21D;51375;44.836;38.672;2023-12-22T10:47:38;16.35;55.00
64882;HTU21D;51375;44.836;38.672;2023-12-22T10:50:06;16.35;55.21
64882;HTU21D;51375;44.836;38.672;2023-12-22T10:52:32;16.34;55.14
64882;HTU21D;51375;44.836;38.672;2023-12-22T10:54:58;16.35;54.88
64882;HTU21D;51375;44.836;38.672;2023-12-22T10:57:24;16.35;54.14
64882;HTU21D;51375;44.836;38.672;2023-12-22T10:59:56;16.33;54.42
64882;HTU21D;51375;44.836;38.672;2023-12-22T11:02:27;16.32;54.59
64882;HTU21D;51375;44.836;38.672;2023-12-22T11:05:06;16.33;54.42
64882;HTU21D;51375;44.836;38.672;2023-12-22T11:07:34;16.36;54.57
64882;HTU21D;51375;44.836;38.672;2023-12-22T11:10:07;16.43;54.71
64882;HTU21D;51375;44.836;38.672;2023-12-22T11:12:36;16.47;54.23
64882;HTU21D;51375;44.836;38.672;2023-12-22T11:15:04;16.48;54.17
64882;HTU21D;51375;44.836;38.672;2023-12-22T11:17:35;16.49;54.07
64882;HTU21D;51375;44.836;38.672;2023-12-22T11:20:06;16.52;54.11
64882;HTU21D;51375;44.836;38.672;2023-12-22T11:22:35;16.58;54.06
64882;HTU21D;51375;44.836;38.672;2023-12-22T11:25:02;16.59;53.80
64882;HTU21D;51375;44.836;38.672;2023-12-22T11:27:29;16.59;53.87
64882;HTU21D;51375;44.836;38.672;2023-12-22T11:29:55;16.60;52.88
64882;HTU21D;51375;44.836;38.672;2023-12-22T11:32:21;16.52;52.94
64882;HTU21D;51375;44.836;38.672;2023-12-22T11:34:48;16.52;52.82
64882;HTU21D;51375;44.836;38.672;2023-12-22T11:37:16;16.49;53.14
64882;HTU21D;51375;44.836;38.672;2023-12-22T11:39:42;16.49;52.62
64882;HTU21D;51375;44.836;38.672;2023-12-22T11:42:11;16.45;52.82
64882;HTU21D;51375;44.836;38.672;2023-12-22T11:44:38;16.42;52.47
64882;HTU21D;51375;44.836;38.672;2023-12-22T11:47:08;16.37;52.58
64882;HTU21D;51375;44.836;38.672;2023-12-22T11:49:36;16.33;52.82
64882;HTU21D;51375;44.836;38.672;2023-12-22T11:52:16;16.32;52.65
64882;HTU21D;51375;44.836;38.672;2023-12-22T11:54:53;16.32;52.76
64882;HTU21D;51375;44.836;38.672;2023-12-22T12:00:01;16.18;52.72
64882;HTU21D;51375;44.836;38.672;2023-12-22T12:02:39;16.15;52.90
64882;HTU21D;51375;44.836;38.672;2023-12-22T12:05:11;16.10;52.95
64882;HTU21D;51375;44.836;38.672;2023-12-22T12:07:46;16.04;53.07
64882;HTU21D;51375;44.836;38.672;2023-12-22T12:13:14;15.92;53.55
64882;HTU21D;51375;44.836;38.672;2023-12-22T12:15:41;15.84;54.09
64882;HTU21D;51375;44.836;38.672;2023-12-22T12:18:08;15.83;54.19
64882;HTU21D;51375;44.836;38.672;2023-12-22T12:20:35;15.77;54.20
64882;HTU21D;51375;44.836;38.672;2023-12-22T12:23:02;15.71;54.43
64882;HTU21D;51375;44.836;38.672;2023-12-22T12:25:28;15.67;54.84
64882;HTU21D;51375;44.836;38.672;2023-12-22T12:28:02;15.67;54.86
64882;HTU21D;51375;44.836;38.672;2023-12-22T12:30:28;15.68;55.02
64882;HTU21D;51375;44.836;38.672;2023-12-22T12:32:54;15.69;55.02
64882;HTU21D;51375;44.836;38.672;2023-12-22T12:35:28;15.67;54.98
64882;HTU21D;51375;44.836;38.672;2023-12-22T12:37:55;15.70;55.19
64882;HTU21D;51375;44.836;38.672;2023-12-22T12:40:23;15.70;55.15
64882;HTU21D;51375;44.836;38.672;2023-12-22T12:42:50;15.73;55.37
64882;HTU21D;51375;44.836;38.672;2023-12-22T12:45:22;15.76;55.42
64882;HTU21D;51375;44.836;38.672;2023-12-22T12:47:59;15.78;55.35
64882;HTU21D;51375;44.836;38.672;2023-12-22T12:50:26;15.82;55.46
64882;HTU21D;51375;44.836;38.672;2023-12-22T12:52:55;15.81;55.53
64882;HTU21D;51375;44.836;38.672;2023-12-22T12:55:22;15.78;55.75
64882;HTU21D;51375;44.836;38.672;2023-12-22T12:57:49;15.81;55.82
64882;HTU21D;51375;44.836;38.672;2023-12-22T13:00:29;15.80;56.00
64882;HTU21D;51375;44.836;38.672;2023-12-22T13:03:02;15.81;56.03
64882;HTU21D;51375;44.836;38.672;2023-12-22T13:05:29;15.80;56.05
64882;HTU21D;51375;44.836;38.672;2023-12-22T13:08:07;15.73;56.20
64882;HTU21D;51375;44.836;38.672;2023-12-22T13:10:33;15.73;56.28
64882;HTU21D;51375;44.836;38.672;2023-12-22T13:12:59;15.71;56.29
64882;HTU21D;51375;44.836;38.672;2023-12-22T13:15:25;15.72;56.27
64882;HTU21D;51375;44.836;38.672;2023-12-22T13:17:51;15.71;56.35
64882;HTU21D;51375;44.836;38.672;2023-12-22T13:20:17;15.69;56.51
64882;HTU21D;51375;44.836;38.672;2023-12-22T13:22:44;15.67;56.63
64882;HTU21D;51375;44.836;38.672;2023-12-22T13:25:10;15.62;56.64
64882;HTU21D;51375;44.836;38.672;2023-12-22T13:27:47;15.58;56.83
64882;HTU21D;51375;44.836;38.672;2023-12-22T13:30:15;15.59;56.90
64882;HTU21D;51375;44.836;38.672;2023-12-22T13:32:41;15.55;57.00
64882;HTU21D;51375;44.836;38.672;2023-12-22T13:35:07;15.52;57.09
64882;HTU21D;51375;44.836;38.672;2023-12-22T13:37:34;15.49;57.22
64882;HTU21D;51375;44.836;38.672;2023-12-22T13:40:08;15.48;57.44
64882;HTU21D;51375;44.836;38.672;2023-12-22T13:42:36;15.49;57.45
64882;HTU21D;51375;44.836;38.672;2023-12-22T13:45:03;15.51;57.45
64882;HTU21D;51375;44.836;38.672;2023-12-22T13:47:30;15.51;57.60
64882;HTU21D;51375;44.836;38.672;2023-12-22T13:49:56;15.53;57.64
64882;HTU21D;51375;44.836;38.672;2023-12-22T13:52:30;15.53;57.72
64882;HTU21D;51375;44.836;38.672;2023-12-22T13:55:01;15.52;57.74
64882;HTU21D;51375;44.836;38.672;2023-12-22T13:57:28;15.47;57.97
64882;HTU21D;51375;44.836;38.672;2023-12-22T13:59:54;15.43;58.19
64882;HTU21D;51375;44.836;38.672;2023-12-22T14:02:23;15.39;58.38
64882;HTU21D;51375;44.836;38.672;2023-12-22T14:04:50;15.31;58.66
64882;HTU21D;51375;44.836;38.672;2023-12-22T14:07:16;15.27;58.88
64882;HTU21D;51375;44.836;38.672;2023-12-22T14:09:42;15.27;59.07
64882;HTU21D;51375;44.836;38.672;2023-12-22T14:12:08;15.19;59.19
64882;HTU21D;51375;44.836;38.672;2023-12-22T14:14:34;15.16;59.30
64882;HTU21D;51375;44.836;38.672;2023-12-22T14:17:00;15.14;59.31
64882;HTU21D;51375;44.836;38.672;2023-12-22T14:19:26;15.13;59.44
64882;HTU21D;51375;44.836;38.672;2023-12-22T14:21:52;15.08;59.59
64882;HTU21D;51375;44.836;38.672;2023-12-22T14:24:18;15.04;59.65
64882;HTU21D;51375;44.836;38.672;2023-12-22T14:26:56;15.01;59.87
64882;HTU21D;51375;44.836;38.672;2023-12-22T14:29:22;15.03;59.87
64882;HTU21D;51375;44.836;38.672;2023-12-22T14:31:50;15.02;60.00
64882;HTU21D;51375;44.836;38.672;2023-12-22T14:34:16;15.03;60.09
64882;HTU21D;51375;44.836;38.672;2023-12-22T14:36:43;15.01;60.10
64882;HTU21D;51375;44.836;38.672;2023-12-22T14:39:10;14.99;60.22
64882;HTU21D;51375;44.836;38.672;2023-12-22T14:41:41;14.98;60.35
64882;HTU21D;51375;44.836;38.672;2023-12-22T14:44:08;15.01;60.35
64882;HTU21D;51375;44.836;38.672;2023-12-22T14:46:39;15.03;60.43
64882;HTU21D;51375;44.836;38.672;2023-12-22T14:49:08;15.04;60.33
64882;HTU21D;51375;44.836;38.672;2023-12-22T14:51:41;14.95;60.54
64882;HTU21D;51375;44.836;38.672;2023-12-22T14:54:08;14.94;60.64
64882;HTU21D;51375;44.836;38.672;2023-12-22T14:56:38;14.92;60.72
64882;HTU21D;51375;44.836;38.672;2023-12-22T14:59:10;14.89;60.89
64882;HTU21D;51375;44.836;38.672;2023-12-22T15:01:38;14.92;61.05
64882;HTU21D;51375;44.836;38.672;2023-12-22T15:04:07;14.91;60.98
64882;HTU21D;51375;44.836;38.672;2023-12-22T15:06:38;14.85;60.89
64882;HTU21D;51375;44.836;38.672;2023-12-22T15:09:09;14.82;61.18
64882;HTU21D;51375;44.836;38.672;2023-12-22T15:11:43;14.78;61.32